Archival Weather

Snohomish County (Paine Fld)

Everett, Washington (KPAE)

Report from: Thursday, November 2, 2023 4:53 AM PDT
Current time: Sunday, June 16, 2024 11:54 PM PDT

Current weather – Weather history – Daily summaries
Weather forecast

Present weatherRain, mist
Temperature11.1°C (52.0°F)
Dew point10.0°C (50.0°F)
Winds 10 kts (5.1 m/s, 11.5 mph) South-Southeast (150°)
Wind gusts 16 kts (8.2 m/s, 18.4 mph)
Visibility4 mi. (6.4 km)
Clouds Ceiling: Overcast 500 ft. (152 m)
Altimeter29.72 in.Hg (1006 mB)
Precipitiation0.04 in. (1 mm)
Precip last 3 hours0.19 in. (5 mm)
Precip last 24 hours0.29 in. (7 mm)
Relative humidity93 %
Density altitude-62 ft. (-19 m)
Sea-level pressure100.7 kPa (1007 mB, 29.72 in.Hg)
Max temp last 6 hours11.7°C (53.1°F)
Min temp last 6 hours9.4°C (48.9°F)
Remarks Fully automated report
System requires maintenance
Automated weather observing station with precipitation discriminator
Pressure falling more slowly
Flight conditions Instrument Meteorological Conditions
Raw dataKPAE 021153Z AUTO 15010G16KT 4SM RA BR OVC005 11/10 A2972 RMK AO2 SLP065 P0004 60019 70029 T01110100 10117 20094 56025 $
An error has occurred. This application may no longer respond until reloaded. Reload 🗙